sensor_id;sensor_type;location;lat;lon;timestamp;temperature;humidity
37782;DHT22;23621;50.878;4.584;2022-11-15T00:00:56;17.00;79.10
37782;DHT22;23621;50.878;4.584;2022-11-15T00:03:25;17.00;79.30
37782;DHT22;23621;50.878;4.584;2022-11-15T00:05:52;17.00;79.40
37782;DHT22;23621;50.878;4.584;2022-11-15T00:08:19;17.00;79.30
37782;DHT22;23621;50.878;4.584;2022-11-15T00:10:54;17.00;79.20
37782;DHT22;23621;50.878;4.584;2022-11-15T00:13:21;17.10;79.20
37782;DHT22;23621;50.878;4.584;2022-11-15T00:15:48;17.10;79.00
37782;DHT22;23621;50.878;4.584;2022-11-15T00:18:15;17.10;79.00
37782;DHT22;23621;50.878;4.584;2022-11-15T00:20:43;17.10;78.90
37782;DHT22;23621;50.878;4.584;2022-11-15T00:23:10;17.20;79.20
37782;DHT22;23621;50.878;4.584;2022-11-15T00:25:38;17.20;79.10
37782;DHT22;23621;50.878;4.584;2022-11-15T00:28:05;17.20;79.10
37782;DHT22;23621;50.878;4.584;2022-11-15T00:30:32;17.10;79.50
37782;DHT22;23621;50.878;4.584;2022-11-15T00:33:03;17.20;79.50
37782;DHT22;23621;50.878;4.584;2022-11-15T00:35:34;17.20;79.70
37782;DHT22;23621;50.878;4.584;2022-11-15T00:38:02;17.20;79.60
37782;DHT22;23621;50.878;4.584;2022-11-15T00:40:29;17.20;79.50
37782;DHT22;23621;50.878;4.584;2022-11-15T00:42:56;17.20;79.50
37782;DHT22;23621;50.878;4.584;2022-11-15T00:45:23;17.20;79.70
37782;DHT22;23621;50.878;4.584;2022-11-15T00:47:51;17.20;79.80
37782;DHT22;23621;50.878;4.584;2022-11-15T00:50:18;17.20;79.90
37782;DHT22;23621;50.878;4.584;2022-11-15T00:52:45;17.30;79.80
37782;DHT22;23621;50.878;4.584;2022-11-15T00:55:16;17.30;79.90
37782;DHT22;23621;50.878;4.584;2022-11-15T00:57:44;17.30;80.00
37782;DHT22;23621;50.878;4.584;2022-11-15T01:00:12;17.30;79.80
37782;DHT22;23621;50.878;4.584;2022-11-15T01:02:39;17.40;79.80
37782;DHT22;23621;50.878;4.584;2022-11-15T01:05:06;17.40;79.90
37782;DHT22;23621;50.878;4.584;2022-11-15T01:07:33;17.40;79.80
37782;DHT22;23621;50.878;4.584;2022-11-15T01:10:00;17.40;79.70
37782;DHT22;23621;50.878;4.584;2022-11-15T01:12:27;17.40;79.90
37782;DHT22;23621;50.878;4.584;2022-11-15T01:14:54;17.50;80.00
37782;DHT22;23621;50.878;4.584;2022-11-15T01:17:21;17.50;80.00
37782;DHT22;23621;50.878;4.584;2022-11-15T01:19:48;17.50;80.00
37782;DHT22;23621;50.878;4.584;2022-11-15T01:22:15;17.50;80.00
37782;DHT22;23621;50.878;4.584;2022-11-15T01:24:42;17.50;80.20
37782;DHT22;23621;50.878;4.584;2022-11-15T01:27:09;17.30;81.00
37782;DHT22;23621;50.878;4.584;2022-11-15T01:29:36;17.40;80.90
37782;DHT22;23621;50.878;4.584;2022-11-15T01:32:02;17.40;81.00
37782;DHT22;23621;50.878;4.584;2022-11-15T01:34:29;17.40;81.30
37782;DHT22;23621;50.878;4.584;2022-11-15T01:36:56;17.40;81.50
37782;DHT22;23621;50.878;4.584;2022-11-15T01:39:23;17.40;81.50
37782;DHT22;23621;50.878;4.584;2022-11-15T01:41:50;17.40;81.70
37782;DHT22;23621;50.878;4.584;2022-11-15T01:44:42;17.40;81.70
37782;DHT22;23621;50.878;4.584;2022-11-15T01:47:29;17.50;82.00
37782;DHT22;23621;50.878;4.584;2022-11-15T01:50:04;17.40;81.80
37782;DHT22;23621;50.878;4.584;2022-11-15T01:52:33;17.50;81.60
37782;DHT22;23621;50.878;4.584;2022-11-15T01:55:08;17.50;81.80
37782;DHT22;23621;50.878;4.584;2022-11-15T01:57:36;17.60;81.80
37782;DHT22;23621;50.878;4.584;2022-11-15T02:00:04;17.60;81.80
37782;DHT22;23621;50.878;4.584;2022-11-15T02:02:33;17.60;81.90
37782;DHT22;23621;50.878;4.584;2022-11-15T02:05:02;17.60;81.80
37782;DHT22;23621;50.878;4.584;2022-11-15T02:07:30;17.70;81.70
37782;DHT22;23621;50.878;4.584;2022-11-15T02:10:02;17.70;81.80
37782;DHT22;23621;50.878;4.584;2022-11-15T02:12:30;17.60;81.90
37782;DHT22;23621;50.878;4.584;2022-11-15T02:14:58;17.60;81.90
37782;DHT22;23621;50.878;4.584;2022-11-15T02:23:16;17.70;81.90
37782;DHT22;23621;50.878;4.584;2022-11-15T02:34:06;17.80;81.60
37782;DHT22;23621;50.878;4.584;2022-11-15T02:36:54;17.80;81.70
37782;DHT22;23621;50.878;4.584;2022-11-15T02:39:46;17.80;81.80
37782;DHT22;23621;50.878;4.584;2022-11-15T02:42:23;17.80;81.70
37782;DHT22;23621;50.878;4.584;2022-11-15T02:45:15;17.80;81.60
37782;DHT22;23621;50.878;4.584;2022-11-15T02:47:45;17.80;81.50
37782;DHT22;23621;50.878;4.584;2022-11-15T02:50:17;17.90;81.60
37782;DHT22;23621;50.878;4.584;2022-11-15T02:52:45;17.90;81.50
37782;DHT22;23621;50.878;4.584;2022-11-15T02:55:48;17.90;81.20
37782;DHT22;23621;50.878;4.584;2022-11-15T03:01:32;18.00;80.70
37782;DHT22;23621;50.878;4.584;2022-11-15T03:06:44;18.00;80.30
37782;DHT22;23621;50.878;4.584;2022-11-15T03:12:03;18.10;80.50
37782;DHT22;23621;50.878;4.584;2022-11-15T03:14:35;18.00;80.30
37782;DHT22;23621;50.878;4.584;2022-11-15T03:17:18;18.00;80.30
37782;DHT22;23621;50.878;4.584;2022-11-15T03:19:52;18.00;80.40
37782;DHT22;23621;50.878;4.584;2022-11-15T03:22:23;18.00;80.50
37782;DHT22;23621;50.878;4.584;2022-11-15T03:24:53;18.00;80.50
37782;DHT22;23621;50.878;4.584;2022-11-15T03:27:25;18.00;80.40
37782;DHT22;23621;50.878;4.584;2022-11-15T03:29:59;18.00;80.40
37782;DHT22;23621;50.878;4.584;2022-11-15T03:32:30;18.00;80.40
37782;DHT22;23621;50.878;4.584;2022-11-15T03:35:11;18.00;80.40
37782;DHT22;23621;50.878;4.584;2022-11-15T03:37:49;18.00;80.40
37782;DHT22;23621;50.878;4.584;2022-11-15T03:40:25;18.00;80.50
37782;DHT22;23621;50.878;4.584;2022-11-15T03:46:10;18.00;80.70
37782;DHT22;23621;50.878;4.584;2022-11-15T03:49:10;17.90;80.70
37782;DHT22;23621;50.878;4.584;2022-11-15T03:51:38;17.90;80.90
37782;DHT22;23621;50.878;4.584;2022-11-15T03:54:06;17.80;81.00
37782;DHT22;23621;50.878;4.584;2022-11-15T03:56:33;17.80;81.00
37782;DHT22;23621;50.878;4.584;2022-11-15T03:58:59;17.80;80.90
37782;DHT22;23621;50.878;4.584;2022-11-15T04:01:26;17.70;80.90
37782;DHT22;23621;50.878;4.584;2022-11-15T04:03:53;17.80;81.10
37782;DHT22;23621;50.878;4.584;2022-11-15T04:06:20;17.80;80.90
37782;DHT22;23621;50.878;4.584;2022-11-15T04:08:47;17.80;80.90
37782;DHT22;23621;50.878;4.584;2022-11-15T04:11:13;17.70;80.90
37782;DHT22;23621;50.878;4.584;2022-11-15T04:13:40;17.70;81.00
37782;DHT22;23621;50.878;4.584;2022-11-15T04:16:07;17.70;80.90
37782;DHT22;23621;50.878;4.584;2022-11-15T04:18:34;17.70;80.70
37782;DHT22;23621;50.878;4.584;2022-11-15T04:21:00;17.70;81.00
37782;DHT22;23621;50.878;4.584;2022-11-15T04:23:46;17.70;80.90
37782;DHT22;23621;50.878;4.584;2022-11-15T04:26:31;17.60;80.80
37782;DHT22;23621;50.878;4.584;2022-11-15T04:28:58;17.70;80.80
37782;DHT22;23621;50.878;4.584;2022-11-15T04:31:44;17.70;80.70
37782;DHT22;23621;50.878;4.584;2022-11-15T04:34:11;17.70;80.60
37782;DHT22;23621;50.878;4.584;2022-11-15T04:36:37;17.70;80.60
37782;DHT22;23621;50.878;4.584;2022-11-15T04:39:32;17.70;80.40
37782;DHT22;23621;50.878;4.584;2022-11-15T04:42:13;17.80;80.40
37782;DHT22;23621;50.878;4.584;2022-11-15T04:44:40;17.80;80.30
37782;DHT22;23621;50.878;4.584;2022-11-15T04:47:07;17.80;80.00
37782;DHT22;23621;50.878;4.584;2022-11-15T04:49:33;17.80;79.90
37782;DHT22;23621;50.878;4.584;2022-11-15T04:52:00;17.70;79.70
37782;DHT22;23621;50.878;4.584;2022-11-15T04:54:27;17.70;79.80
37782;DHT22;23621;50.878;4.584;2022-11-15T04:56:54;17.70;79.90
37782;DHT22;23621;50.878;4.584;2022-11-15T04:59:21;17.70;79.80
37782;DHT22;23621;50.878;4.584;2022-11-15T05:01:48;17.50;79.60
37782;DHT22;23621;50.878;4.584;2022-11-15T05:04:14;17.50;79.80
37782;DHT22;23621;50.878;4.584;2022-11-15T05:06:49;17.50;79.70
37782;DHT22;23621;50.878;4.584;2022-11-15T05:09:17;17.40;79.60
37782;DHT22;23621;50.878;4.584;2022-11-15T05:11:45;17.50;79.70
37782;DHT22;23621;50.878;4.584;2022-11-15T05:14:12;17.50;79.50
37782;DHT22;23621;50.878;4.584;2022-11-15T05:16:39;17.50;79.30
37782;DHT22;23621;50.878;4.584;2022-11-15T05:19:06;17.60;79.10
37782;DHT22;23621;50.878;4.584;2022-11-15T05:21:34;17.50;78.90
37782;DHT22;23621;50.878;4.584;2022-11-15T05:24:01;17.60;79.00
37782;DHT22;23621;50.878;4.584;2022-11-15T05:26:29;17.50;78.90
37782;DHT22;23621;50.878;4.584;2022-11-15T05:28:57;17.50;78.90
37782;DHT22;23621;50.878;4.584;2022-11-15T05:31:24;17.50;78.70
37782;DHT22;23621;50.878;4.584;2022-11-15T05:33:52;17.50;78.60
37782;DHT22;23621;50.878;4.584;2022-11-15T05:36:36;17.50;78.50
37782;DHT22;23621;50.878;4.584;2022-11-15T05:39:05;17.60;78.50
37782;DHT22;23621;50.878;4.584;2022-11-15T05:41:51;17.50;78.30
37782;DHT22;23621;50.878;4.584;2022-11-15T05:44:22;17.60;78.40
37782;DHT22;23621;50.878;4.584;2022-11-15T05:46:50;17.60;78.20
37782;DHT22;23621;50.878;4.584;2022-11-15T05:49:23;17.50;78.10
37782;DHT22;23621;50.878;4.584;2022-11-15T05:51:51;17.50;77.90
37782;DHT22;23621;50.878;4.584;2022-11-15T05:54:20;17.50;77.90
37782;DHT22;23621;50.878;4.584;2022-11-15T05:56:48;17.50;77.80
37782;DHT22;23621;50.878;4.584;2022-11-15T05:59:16;17.50;77.70
37782;DHT22;23621;50.878;4.584;2022-11-15T06:01:43;17.50;77.70
37782;DHT22;23621;50.878;4.584;2022-11-15T06:04:10;17.50;77.70
37782;DHT22;23621;50.878;4.584;2022-11-15T06:06:37;17.40;77.60
37782;DHT22;23621;50.878;4.584;2022-11-15T06:09:04;17.40;77.50
37782;DHT22;23621;50.878;4.584;2022-11-15T06:11:30;17.30;77.60
37782;DHT22;23621;50.878;4.584;2022-11-15T06:13:57;17.30;77.70
37782;DHT22;23621;50.878;4.584;2022-11-15T06:16:24;17.30;77.60
37782;DHT22;23621;50.878;4.584;2022-11-15T06:18:51;17.30;77.70
37782;DHT22;23621;50.878;4.584;2022-11-15T06:21:17;17.30;77.60
37782;DHT22;23621;50.878;4.584;2022-11-15T06:23:44;17.30;77.60
37782;DHT22;23621;50.878;4.584;2022-11-15T06:26:11;17.20;77.40
37782;DHT22;23621;50.878;4.584;2022-11-15T06:28:38;17.20;77.30
37782;DHT22;23621;50.878;4.584;2022-11-15T06:31:07;17.20;77.30
37782;DHT22;23621;50.878;4.584;2022-11-15T06:33:34;17.20;77.40
37782;DHT22;23621;50.878;4.584;2022-11-15T06:36:06;17.20;77.30
37782;DHT22;23621;50.878;4.584;2022-11-15T06:38:41;17.10;77.20
37782;DHT22;23621;50.878;4.584;2022-11-15T06:41:10;17.10;77.10
37782;DHT22;23621;50.878;4.584;2022-11-15T06:43:37;17.10;77.10
37782;DHT22;23621;50.878;4.584;2022-11-15T06:46:05;17.00;77.00
37782;DHT22;23621;50.878;4.584;2022-11-15T06:48:33;17.00;76.90
37782;DHT22;23621;50.878;4.584;2022-11-15T06:51:02;17.00;76.90
37782;DHT22;23621;50.878;4.584;2022-11-15T06:53:29;16.90;76.80
37782;DHT22;23621;50.878;4.584;2022-11-15T06:56:01;16.90;76.80
37782;DHT22;23621;50.878;4.584;2022-11-15T06:58:28;16.90;76.90
37782;DHT22;23621;50.878;4.584;2022-11-15T07:01:00;16.80;76.80
37782;DHT22;23621;50.878;4.584;2022-11-15T07:03:27;16.80;76.80
37782;DHT22;23621;50.878;4.584;2022-11-15T07:05:56;16.80;76.80
37782;DHT22;23621;50.878;4.584;2022-11-15T07:08:31;16.80;76.80
37782;DHT22;23621;50.878;4.584;2022-11-15T07:10:59;16.80;76.70
37782;DHT22;23621;50.878;4.584;2022-11-15T07:13:28;16.80;76.60
37782;DHT22;23621;50.878;4.584;2022-11-15T07:15:56;16.80;76.70
37782;DHT22;23621;50.878;4.584;2022-11-15T07:18:23;16.70;77.30
37782;DHT22;23621;50.878;4.584;2022-11-15T07:20:50;16.80;76.60
37782;DHT22;23621;50.878;4.584;2022-11-15T07:23:17;16.70;76.50
37782;DHT22;23621;50.878;4.584;2022-11-15T07:25:44;16.70;76.50
37782;DHT22;23621;50.878;4.584;2022-11-15T07:28:11;16.70;76.40
37782;DHT22;23621;50.878;4.584;2022-11-15T07:30:38;16.70;76.40
37782;DHT22;23621;50.878;4.584;2022-11-15T07:33:10;16.70;76.30
37782;DHT22;23621;50.878;4.584;2022-11-15T07:35:37;16.70;76.20
37782;DHT22;23621;50.878;4.584;2022-11-15T07:38:04;16.70;76.20
37782;DHT22;23621;50.878;4.584;2022-11-15T07:40:31;16.70;76.10
37782;DHT22;23621;50.878;4.584;2022-11-15T07:43:00;16.70;76.20
37782;DHT22;23621;50.878;4.584;2022-11-15T07:45:27;16.70;76.10
37782;DHT22;23621;50.878;4.584;2022-11-15T07:47:54;16.70;76.20
37782;DHT22;23621;50.878;4.584;2022-11-15T07:50:23;16.70;76.10
37782;DHT22;23621;50.878;4.584;2022-11-15T07:52:58;16.70;76.10
37782;DHT22;23621;50.878;4.584;2022-11-15T07:55:27;16.80;76.10
37782;DHT22;23621;50.878;4.584;2022-11-15T07:58:09;16.70;76.00
37782;DHT22;23621;50.878;4.584;2022-11-15T08:00:37;16.70;75.90
37782;DHT22;23621;50.878;4.584;2022-11-15T08:03:09;16.70;75.90
37782;DHT22;23621;50.878;4.584;2022-11-15T08:05:38;16.70;75.90
37782;DHT22;23621;50.878;4.584;2022-11-15T08:08:06;16.70;75.90
37782;DHT22;23621;50.878;4.584;2022-11-15T08:10:34;16.80;76.00
37782;DHT22;23621;50.878;4.584;2022-11-15T08:13:09;16.80;76.00
37782;DHT22;23621;50.878;4.584;2022-11-15T08:15:37;16.80;76.00
37782;DHT22;23621;50.878;4.584;2022-11-15T08:18:08;16.80;76.00
37782;DHT22;23621;50.878;4.584;2022-11-15T08:20:35;16.80;75.90
37782;DHT22;23621;50.878;4.584;2022-11-15T08:23:03;16.80;76.00
37782;DHT22;23621;50.878;4.584;2022-11-15T08:25:33;16.80;76.00
37782;DHT22;23621;50.878;4.584;2022-11-15T08:28:03;16.80;76.00
37782;DHT22;23621;50.878;4.584;2022-11-15T08:30:33;16.80;75.90
37782;DHT22;23621;50.878;4.584;2022-11-15T08:33:01;16.80;75.90
37782;DHT22;23621;50.878;4.584;2022-11-15T08:35:28;16.80;75.90
37782;DHT22;23621;50.878;4.584;2022-11-15T08:37:55;16.80;75.90
37782;DHT22;23621;50.878;4.584;2022-11-15T08:40:22;16.80;75.90
37782;DHT22;23621;50.878;4.584;2022-11-15T08:42:49;16.80;75.70
37782;DHT22;23621;50.878;4.584;2022-11-15T08:45:16;16.80;75.70
37782;DHT22;23621;50.878;4.584;2022-11-15T08:47:43;16.80;75.60
37782;DHT22;23621;50.878;4.584;2022-11-15T08:50:15;16.80;75.50
37782;DHT22;23621;50.878;4.584;2022-11-15T08:52:42;16.90;75.60
37782;DHT22;23621;50.878;4.584;2022-11-15T08:55:09;16.90;75.40
37782;DHT22;23621;50.878;4.584;2022-11-15T08:57:36;16.90;75.40
37782;DHT22;23621;50.878;4.584;2022-11-15T09:00:03;16.90;75.30
37782;DHT22;23621;50.878;4.584;2022-11-15T09:02:30;16.90;75.30
37782;DHT22;23621;50.878;4.584;2022-11-15T09:04:57;16.90;75.20
37782;DHT22;23621;50.878;4.584;2022-11-15T09:07:24;16.90;75.10
37782;DHT22;23621;50.878;4.584;2022-11-15T09:09:51;16.90;75.00
37782;DHT22;23621;50.878;4.584;2022-11-15T09:12:18;17.00;75.10
37782;DHT22;23621;50.878;4.584;2022-11-15T09:14:45;17.00;75.80
37782;DHT22;23621;50.878;4.584;2022-11-15T09:17:11;17.10;75.10
37782;DHT22;23621;50.878;4.584;2022-11-15T09:19:38;17.10;74.90
37782;DHT22;23621;50.878;4.584;2022-11-15T09:22:06;17.10;74.80
37782;DHT22;23621;50.878;4.584;2022-11-15T09:24:34;17.10;74.80
37782;DHT22;23621;50.878;4.584;2022-11-15T09:27:01;17.20;74.80
37782;DHT22;23621;50.878;4.584;2022-11-15T09:51:03;16.60;76.80
37782;DHT22;23621;50.878;4.584;2022-11-15T09:54:11;16.90;75.70
37782;DHT22;23621;50.878;4.584;2022-11-15T09:57:21;17.10;74.80
37782;DHT22;23621;50.878;4.584;2022-11-15T10:00:21;17.20;74.40
37782;DHT22;23621;50.878;4.584;2022-11-15T10:03:34;17.30;74.20
37782;DHT22;23621;50.878;4.584;2022-11-15T10:06:26;17.30;73.90
37782;DHT22;23621;50.878;4.584;2022-11-15T10:09:15;17.40;73.90
37782;DHT22;23621;50.878;4.584;2022-11-15T10:12:12;17.40;73.80
37782;DHT22;23621;50.878;4.584;2022-11-15T10:15:05;17.50;73.70
37782;DHT22;23621;50.878;4.584;2022-11-15T10:18:06;17.50;73.60
37782;DHT22;23621;50.878;4.584;2022-11-15T10:20:58;17.50;73.50
37782;DHT22;23621;50.878;4.584;2022-11-15T10:23:45;17.50;73.50
37782;DHT22;23621;50.878;4.584;2022-11-15T10:26:32;17.50;73.50
37782;DHT22;23621;50.878;4.584;2022-11-15T10:29:21;17.40;73.40
37782;DHT22;23621;50.878;4.584;2022-11-15T10:32:14;17.40;73.40
37782;DHT22;23621;50.878;4.584;2022-11-15T10:35:19;17.50;73.50
37782;DHT22;23621;50.878;4.584;2022-11-15T10:38:11;17.50;73.20
37782;DHT22;23621;50.878;4.584;2022-11-15T10:41:07;17.50;73.20
37782;DHT22;23621;50.878;4.584;2022-11-15T10:49:55;17.50;73.20
37782;DHT22;23621;50.878;4.584;2022-11-15T10:52:45;17.60;73.20
37782;DHT22;23621;50.878;4.584;2022-11-15T10:55:33;17.60;73.00
37782;DHT22;23621;50.878;4.584;2022-11-15T10:58:38;17.60;73.00
37782;DHT22;23621;50.878;4.584;2022-11-15T11:01:28;17.70;73.00
37782;DHT22;23621;50.878;4.584;2022-11-15T11:04:16;17.70;72.90
37782;DHT22;23621;50.878;4.584;2022-11-15T11:07:20;17.70;72.80
37782;DHT22;23621;50.878;4.584;2022-11-15T11:10:20;17.70;72.80
37782;DHT22;23621;50.878;4.584;2022-11-15T11:16:44;17.80;72.80
37782;DHT22;23621;50.878;4.584;2022-11-15T11:31:37;18.00;72.40
37782;DHT22;23621;50.878;4.584;2022-11-15T11:34:32;18.00;72.40
37782;DHT22;23621;50.878;4.584;2022-11-15T11:37:41;18.00;72.40
37782;DHT22;23621;50.878;4.584;2022-11-15T11:40:43;18.10;72.40
37782;DHT22;23621;50.878;4.584;2022-11-15T11:43:37;18.10;72.50
37782;DHT22;23621;50.878;4.584;2022-11-15T11:49:52;18.30;72.00
37782;DHT22;23621;50.878;4.584;2022-11-15T11:53:02;18.30;71.90
37782;DHT22;23621;50.878;4.584;2022-11-15T11:55:53;18.40;71.70
37782;DHT22;23621;50.878;4.584;2022-11-15T11:58:46;18.40;71.90
37782;DHT22;23621;50.878;4.584;2022-11-15T12:01:37;18.40;71.70
37782;DHT22;23621;50.878;4.584;2022-11-15T12:07:27;18.50;71.50
37782;DHT22;23621;50.878;4.584;2022-11-15T12:13:13;18.60;71.50
37782;DHT22;23621;50.878;4.584;2022-11-15T12:16:26;18.60;71.50
37782;DHT22;23621;50.878;4.584;2022-11-15T12:19:14;18.60;71.50
37782;DHT22;23621;50.878;4.584;2022-11-15T12:22:22;18.70;71.60
37782;DHT22;23621;50.878;4.584;2022-11-15T12:25:30;18.70;71.70
37782;DHT22;23621;50.878;4.584;2022-11-15T12:28:20;18.70;71.60
37782;DHT22;23621;50.878;4.584;2022-11-15T12:31:24;18.70;71.60
37782;DHT22;23621;50.878;4.584;2022-11-15T12:40:32;18.70;71.50
37782;DHT22;23621;50.878;4.584;2022-11-15T12:43:44;18.70;71.60
37782;DHT22;23621;50.878;4.584;2022-11-15T12:52:06;18.80;71.80
37782;DHT22;23621;50.878;4.584;2022-11-15T12:59:49;18.80;71.80
37782;DHT22;23621;50.878;4.584;2022-11-15T13:02:26;18.80;71.80
37782;DHT22;23621;50.878;4.584;2022-11-15T13:05:19;18.80;72.00
37782;DHT22;23621;50.878;4.584;2022-11-15T13:17:49;19.10;72.50
37782;DHT22;23621;50.878;4.584;2022-11-15T13:20:18;19.10;72.60
37782;DHT22;23621;50.878;4.584;2022-11-15T13:23:02;19.20;72.80
37782;DHT22;23621;50.878;4.584;2022-11-15T13:28:47;19.20;72.80
37782;DHT22;23621;50.878;4.584;2022-11-15T13:31:35;19.20;72.90
37782;DHT22;23621;50.878;4.584;2022-11-15T13:34:28;19.20;72.80
37782;DHT22;23621;50.878;4.584;2022-11-15T13:39:49;19.00;72.80
37782;DHT22;23621;50.878;4.584;2022-11-15T13:42:18;19.00;72.80
37782;DHT22;23621;50.878;4.584;2022-11-15T13:45:00;19.00;73.00
37782;DHT22;23621;50.878;4.584;2022-11-15T13:47:28;19.10;73.10
37782;DHT22;23621;50.878;4.584;2022-11-15T13:50:00;19.00;73.10
37782;DHT22;23621;50.878;4.584;2022-11-15T13:52:42;19.10;73.20
37782;DHT22;23621;50.878;4.584;2022-11-15T13:55:15;19.10;73.20
37782;DHT22;23621;50.878;4.584;2022-11-15T13:58:09;19.10;73.30
37782;DHT22;23621;50.878;4.584;2022-11-15T14:00:42;19.10;73.40
37782;DHT22;23621;50.878;4.584;2022-11-15T14:03:23;19.10;73.30
37782;DHT22;23621;50.878;4.584;2022-11-15T14:08:35;19.10;73.40
37782;DHT22;23621;50.878;4.584;2022-11-15T14:11:16;19.10;73.50
37782;DHT22;23621;50.878;4.584;2022-11-15T14:16:49;19.10;73.50
37782;DHT22;23621;50.878;4.584;2022-11-15T14:22:12;19.00;73.30
37782;DHT22;23621;50.878;4.584;2022-11-15T14:24:40;19.10;73.50
37782;DHT22;23621;50.878;4.584;2022-11-15T14:27:26;19.00;73.50
37782;DHT22;23621;50.878;4.584;2022-11-15T14:29:53;19.10;73.90
37782;DHT22;23621;50.878;4.584;2022-11-15T14:32:23;19.10;73.90
37782;DHT22;23621;50.878;4.584;2022-11-15T14:35:02;19.10;74.00
37782;DHT22;23621;50.878;4.584;2022-11-15T14:37:31;19.10;74.30
37782;DHT22;23621;50.878;4.584;2022-11-15T14:40:04;19.10;74.40
37782;DHT22;23621;50.878;4.584;2022-11-15T14:42:32;19.00;74.50
37782;DHT22;23621;50.878;4.584;2022-11-15T14:44:59;19.00;74.60
37782;DHT22;23621;50.878;4.584;2022-11-15T14:47:26;19.00;74.70
37782;DHT22;23621;50.878;4.584;2022-11-15T14:49:52;19.00;74.80
37782;DHT22;23621;50.878;4.584;2022-11-15T14:52:26;19.00;75.00
37782;DHT22;23621;50.878;4.584;2022-11-15T14:55:01;19.00;75.00
37782;DHT22;23621;50.878;4.584;2022-11-15T14:57:30;19.00;75.10
37782;DHT22;23621;50.878;4.584;2022-11-15T14:59:57;19.00;75.10
37782;DHT22;23621;50.878;4.584;2022-11-15T15:02:26;19.00;75.20
37782;DHT22;23621;50.878;4.584;2022-11-15T15:04:53;18.90;75.20
37782;DHT22;23621;50.878;4.584;2022-11-15T15:07:21;19.00;75.30
37782;DHT22;23621;50.878;4.584;2022-11-15T15:09:48;19.00;75.30
37782;DHT22;23621;50.878;4.584;2022-11-15T15:12:23;19.00;75.30
37782;DHT22;23621;50.878;4.584;2022-11-15T15:14:50;19.00;75.40
37782;DHT22;23621;50.878;4.584;2022-11-15T15:17:17;19.00;75.40
37782;DHT22;23621;50.878;4.584;2022-11-15T15:19:44;19.00;75.50
37782;DHT22;23621;50.878;4.584;2022-11-15T15:22:16;19.00;75.60
37782;DHT22;23621;50.878;4.584;2022-11-15T15:24:44;19.00;75.60
37782;DHT22;23621;50.878;4.584;2022-11-15T15:27:12;19.00;75.60
37782;DHT22;23621;50.878;4.584;2022-11-15T15:29:39;19.00;75.60
37782;DHT22;23621;50.878;4.584;2022-11-15T15:32:08;19.00;75.70
37782;DHT22;23621;50.878;4.584;2022-11-15T15:34:35;19.00;75.70
37782;DHT22;23621;50.878;4.584;2022-11-15T15:39:35;19.00;75.90
37782;DHT22;23621;50.878;4.584;2022-11-15T15:42:01;19.00;75.90
37782;DHT22;23621;50.878;4.584;2022-11-15T15:44:30;18.90;76.10
37782;DHT22;23621;50.878;4.584;2022-11-15T15:46:57;18.90;76.20
37782;DHT22;23621;50.878;4.584;2022-11-15T15:49:24;18.90;76.40
37782;DHT22;23621;50.878;4.584;2022-11-15T15:51:51;18.90;76.50
37782;DHT22;23621;50.878;4.584;2022-11-15T15:54:18;18.90;76.50
37782;DHT22;23621;50.878;4.584;2022-11-15T15:56:46;18.80;76.60
37782;DHT22;23621;50.878;4.584;2022-11-15T15:59:17;18.90;76.70
37782;DHT22;23621;50.878;4.584;2022-11-15T16:01:44;18.90;76.80
37782;DHT22;23621;50.878;4.584;2022-11-15T16:04:11;18.90;76.80
37782;DHT22;23621;50.878;4.584;2022-11-15T16:06:39;18.90;76.90
37782;DHT22;23621;50.878;4.584;2022-11-15T16:09:16;18.90;77.10
37782;DHT22;23621;50.878;4.584;2022-11-15T16:11:45;18.80;77.00
37782;DHT22;23621;50.878;4.584;2022-11-15T16:14:12;18.90;77.20
37782;DHT22;23621;50.878;4.584;2022-11-15T16:16:39;18.80;77.10
37782;DHT22;23621;50.878;4.584;2022-11-15T16:19:07;18.80;77.30
37782;DHT22;23621;50.878;4.584;2022-11-15T16:21:35;18.80;78.10
37782;DHT22;23621;50.878;4.584;2022-11-15T16:24:02;18.80;77.40
37782;DHT22;23621;50.878;4.584;2022-11-15T16:26:29;18.80;77.50
37782;DHT22;23621;50.878;4.584;2022-11-15T16:28:56;18.80;77.60
37782;DHT22;23621;50.878;4.584;2022-11-15T16:31:24;18.80;77.60
37782;DHT22;23621;50.878;4.584;2022-11-15T16:33:50;18.80;77.70
37782;DHT22;23621;50.878;4.584;2022-11-15T16:36:22;18.90;77.80
37782;DHT22;23621;50.878;4.584;2022-11-15T16:38:55;18.90;77.90
37782;DHT22;23621;50.878;4.584;2022-11-15T16:41:22;18.90;77.80
37782;DHT22;23621;50.878;4.584;2022-11-15T16:43:48;18.90;77.80
37782;DHT22;23621;50.878;4.584;2022-11-15T16:46:24;18.80;77.70
37782;DHT22;23621;50.878;4.584;2022-11-15T16:48:52;18.80;77.90
37782;DHT22;23621;50.878;4.584;2022-11-15T16:51:20;18.80;77.90
37782;DHT22;23621;50.878;4.584;2022-11-15T16:53:47;18.80;78.10
37782;DHT22;23621;50.878;4.584;2022-11-15T16:56:28;18.80;78.70
37782;DHT22;23621;50.878;4.584;2022-11-15T16:58:56;18.70;78.70
37782;DHT22;23621;50.878;4.584;2022-11-15T17:01:36;18.80;78.70
37782;DHT22;23621;50.878;4.584;2022-11-15T17:04:17;18.80;78.60
37782;DHT22;23621;50.878;4.584;2022-11-15T17:06:46;18.90;78.50
37782;DHT22;23621;50.878;4.584;2022-11-15T17:09:21;18.90;78.40
37782;DHT22;23621;50.878;4.584;2022-11-15T17:11:51;18.90;78.30
37782;DHT22;23621;50.878;4.584;2022-11-15T17:14:18;18.80;79.20
37782;DHT22;23621;50.878;4.584;2022-11-15T17:16:45;18.70;79.20
37782;DHT22;23621;50.878;4.584;2022-11-15T17:19:14;18.90;79.00
37782;DHT22;23621;50.878;4.584;2022-11-15T17:21:42;18.90;78.70
37782;DHT22;23621;50.878;4.584;2022-11-15T17:24:09;19.00;78.60
37782;DHT22;23621;50.878;4.584;2022-11-15T17:26:37;19.00;78.40
37782;DHT22;23621;50.878;4.584;2022-11-15T17:29:06;19.00;78.40
37782;DHT22;23621;50.878;4.584;2022-11-15T17:31:36;19.00;78.40
37782;DHT22;23621;50.878;4.584;2022-11-15T17:34:04;19.00;78.40
37782;DHT22;23621;50.878;4.584;2022-11-15T17:36:31;19.00;78.50
37782;DHT22;23621;50.878;4.584;2022-11-15T17:38:59;19.00;78.60
37782;DHT22;23621;50.878;4.584;2022-11-15T17:41:27;19.00;78.60
37782;DHT22;23621;50.878;4.584;2022-11-15T17:43:58;19.00;78.60
37782;DHT22;23621;50.878;4.584;2022-11-15T17:46:27;19.00;78.70
37782;DHT22;23621;50.878;4.584;2022-11-15T17:48:55;19.00;78.80
37782;DHT22;23621;50.878;4.584;2022-11-15T17:51:22;19.00;78.90
37782;DHT22;23621;50.878;4.584;2022-11-15T17:53:50;19.00;78.90
37782;DHT22;23621;50.878;4.584;2022-11-15T17:56:19;18.90;78.90
37782;DHT22;23621;50.878;4.584;2022-11-15T17:58:54;18.90;79.70
37782;DHT22;23621;50.878;4.584;2022-11-15T18:01:25;18.90;79.00
37782;DHT22;23621;50.878;4.584;2022-11-15T18:03:54;18.90;79.00
37782;DHT22;23621;50.878;4.584;2022-11-15T18:06:22;18.90;79.10
37782;DHT22;23621;50.878;4.584;2022-11-15T18:08:51;18.90;79.10
37782;DHT22;23621;50.878;4.584;2022-11-15T18:11:28;18.90;79.20